Terminal Aerodrome Forecast
Issued by NWS

Home | Current Version | Previous Version | Text Only | Print | Product List | Glossary On
Versions: 1 2 3 4 5 6 7 8 9 10 11 12 13
000
FTUS43 KGRB 040542
TAFAUW
TAF
KAUW 040542Z 0406/0506 34009KT 6SM BR SCT070
      TEMPO 0406/0410 2SM BR SCT040 BKN070
     FM041000 33011G20KT P6SM SCT035 BKN070
     FM041400 35014G22KT P6SM BKN035 BKN070
     FM042200 35012G18KT P6SM SCT070
     FM050300 35008KT P6SM SKC=

USA.gov is the U.S. government's official web portal to all federal, state and local government web resources and services.